CCM41AR LFKJ-LFML
Flight info
| Callsign | CCM41AR |
|---|---|
| Flight time | 0h 49m |
| Altitude | 24000 |
| Route | TINOT |
| Aircraft | A320/M-SDE3FGHIRWY/LB1 |
Departure
| Time | 2026-04-28 19:12 |
|---|---|
| Airport | Ajaccio Napoléon Bonaparte airport (LFKJ) |
Arrival
| Time | 2026-04-28 20:01 |
|---|---|
| Airport | Marseille Provence Airport (LFML) |
| Time | Latitude | Longitude | Altitude | Speed | Heading |
|---|---|---|---|---|---|
| 2026-04-28 18:04 | 41.92083 | 8.79634 | 21 ft | 0 kts | 315° |
| 2026-04-28 18:05 | 41.92073 | 8.79643 | 22 ft | 0 kts | 315° |
| 2026-04-28 18:05 | 41.92075 | 8.79643 | 22 ft | 0 kts | 345° |
| 2026-04-28 18:06 | 41.92081 | 8.79637 | 21 ft | 0 kts | 315° |
| 2026-04-28 18:06 | 41.92075 | 8.79643 | 22 ft | 0 kts | 345° |
| 2026-04-28 18:07 | 41.92080 | 8.79641 | 22 ft | 0 kts | 345° |
| 2026-04-28 18:17 | 41.92079 | 8.79641 | 21 ft | 0 kts | 345° |
| 2026-04-28 18:32 | 41.92079 | 8.79642 | 21 ft | 0 kts | 345° |
| 2026-04-28 18:36 | 41.92078 | 8.79642 | 21 ft | 0 kts | 345° |
| 2026-04-28 18:53 | 41.92100 | 8.79664 | 23 ft | 13 kts | 43° |
| 2026-04-28 18:53 | 41.92170 | 8.79751 | 23 ft | 13 kts | 5° |
| 2026-04-28 18:54 | 41.92221 | 8.79810 | 21 ft | 11 kts | 35° |
| 2026-04-28 18:54 | 41.92360 | 8.79894 | 23 ft | 30 kts | 26° |
| 2026-04-28 18:54 | 41.92551 | 8.80012 | 22 ft | 31 kts | 24° |
| 2026-04-28 18:54 | 41.92747 | 8.80136 | 22 ft | 31 kts | 28° |
| 2026-04-28 18:55 | 41.92823 | 8.80220 | 22 ft | 0 kts | 44° |
| 2026-04-28 18:56 | 41.92826 | 8.80224 | 22 ft | 3 kts | 44° |
| 2026-04-28 18:56 | 41.92837 | 8.80238 | 22 ft | 2 kts | 44° |
| 2026-04-28 18:57 | 41.92843 | 8.80246 | 23 ft | 1 kts | 44° |
| 2026-04-28 18:57 | 41.92845 | 8.80249 | 22 ft | 0 kts | 44° |
| 2026-04-28 18:57 | 41.92873 | 8.80285 | 22 ft | 0 kts | 45° |
| 2026-04-28 19:00 | 41.92904 | 8.80327 | 22 ft | 11 kts | 45° |
| 2026-04-28 19:00 | 41.92920 | 8.80349 | 22 ft | 0 kts | 46° |
| 2026-04-28 19:03 | 41.92950 | 8.80394 | 22 ft | 12 kts | 58° |
| 2026-04-28 19:04 | 41.92952 | 8.80399 | 23 ft | 0 kts | 61° |
| 2026-04-28 19:06 | 41.92963 | 8.80462 | 23 ft | 0 kts | 124° |
| 2026-04-28 19:08 | 41.92956 | 8.80488 | -2 ft | 10 kts | 126° |
| 2026-04-28 19:09 | 41.92919 | 8.80534 | 27 ft | 7 kts | 127° |
| 2026-04-28 19:09 | 41.92843 | 8.80523 | 26 ft | 10 kts | 205° |
| 2026-04-28 19:09 | 41.92823 | 8.80510 | 26 ft | 0 kts | 204° |
| 2026-04-28 19:11 | 41.92822 | 8.80510 | 26 ft | 0 kts | 204° |
| 2026-04-28 19:11 | 41.92816 | 8.80506 | 25 ft | 6 kts | 204° |
| 2026-04-28 19:11 | 41.92533 | 8.80330 | 21 ft | 83 kts | 206° |
| 2026-04-28 19:11 | 41.91823 | 8.79883 | 21 ft | 139 kts | 205° |
| 2026-04-28 19:12 | 41.90843 | 8.79252 | 310 ft | 160 kts | 205° |
| 2026-04-28 19:12 | 41.89865 | 8.78623 | 943 ft | 156 kts | 217° |
| 2026-04-28 19:12 | 41.89211 | 8.77461 | 1496 ft | 156 kts | 239° |
| 2026-04-28 19:12 | 41.88684 | 8.76152 | 1854 ft | 168 kts | 242° |
| 2026-04-28 19:13 | 41.88120 | 8.74676 | 2075 ft | 186 kts | 243° |
| 2026-04-28 19:13 | 41.87516 | 8.73039 | 2211 ft | 207 kts | 243° |
| 2026-04-28 19:13 | 41.86826 | 8.71232 | 2334 ft | 230 kts | 240° |
| 2026-04-28 19:13 | 41.86030 | 8.69253 | 2497 ft | 252 kts | 240° |
| 2026-04-28 19:14 | 41.85169 | 8.67147 | 2907 ft | 262 kts | 239° |
| 2026-04-28 19:14 | 41.84278 | 8.64992 | 3457 ft | 265 kts | 239° |
| 2026-04-28 19:14 | 41.83394 | 8.62853 | 4024 ft | 267 kts | 241° |
| 2026-04-28 19:14 | 41.82808 | 8.60472 | 4838 ft | 272 kts | 259° |
| 2026-04-28 19:15 | 41.82772 | 8.57928 | 5794 ft | 276 kts | 276° |
| 2026-04-28 19:15 | 41.83299 | 8.55430 | 6711 ft | 281 kts | 288° |
| 2026-04-28 19:15 | 41.83999 | 8.52979 | 7610 ft | 283 kts | 288° |
| 2026-04-28 19:15 | 41.84477 | 8.51315 | 8208 ft | 284 kts | 289° |
| 2026-04-28 19:16 | 41.85419 | 8.48029 | 9394 ft | 286 kts | 289° |
| 2026-04-28 19:16 | 41.86131 | 8.45520 | 10232 ft | 290 kts | 289° |
| 2026-04-28 19:16 | 41.86875 | 8.42891 | 10546 ft | 313 kts | 289° |
| 2026-04-28 19:16 | 41.87676 | 8.40060 | 10765 ft | 336 kts | 289° |
| 2026-04-28 19:17 | 41.88526 | 8.37052 | 11130 ft | 351 kts | 289° |
| 2026-04-28 19:17 | 41.89402 | 8.33953 | 11795 ft | 357 kts | 289° |
| 2026-04-28 19:17 | 41.90288 | 8.30824 | 12497 ft | 361 kts | 289° |
| 2026-04-28 19:17 | 41.91182 | 8.27658 | 13215 ft | 365 kts | 289° |
| 2026-04-28 19:18 | 41.92083 | 8.24453 | 13925 ft | 368 kts | 289° |
| 2026-04-28 19:18 | 41.92990 | 8.21223 | 14552 ft | 371 kts | 289° |
| 2026-04-28 19:18 | 41.93895 | 8.17999 | 15180 ft | 374 kts | 289° |
| 2026-04-28 19:18 | 41.94816 | 8.14716 | 15794 ft | 377 kts | 289° |
| 2026-04-28 19:19 | 41.95741 | 8.11405 | 16426 ft | 380 kts | 289° |
| 2026-04-28 19:19 | 41.96672 | 8.08064 | 17056 ft | 383 kts | 289° |
| 2026-04-28 19:19 | 41.97612 | 8.04691 | 17664 ft | 387 kts | 289° |
| 2026-04-28 19:19 | 41.98563 | 8.01286 | 18275 ft | 390 kts | 289° |
| 2026-04-28 19:20 | 41.99522 | 7.97858 | 18819 ft | 393 kts | 289° |
| 2026-04-28 19:20 | 42.00487 | 7.94402 | 19366 ft | 396 kts | 289° |
| 2026-04-28 19:20 | 42.01456 | 7.90922 | 19911 ft | 399 kts | 289° |
| 2026-04-28 19:20 | 42.02427 | 7.87415 | 20446 ft | 401 kts | 288° |
| 2026-04-28 19:21 | 42.03392 | 7.83927 | 20958 ft | 404 kts | 288° |
| 2026-04-28 19:21 | 42.04373 | 7.80375 | 21470 ft | 406 kts | 288° |
| 2026-04-28 19:21 | 42.05360 | 7.76800 | 21965 ft | 409 kts | 288° |
| 2026-04-28 19:21 | 42.06354 | 7.73200 | 22448 ft | 411 kts | 288° |
| 2026-04-28 19:22 | 42.07354 | 7.69576 | 22917 ft | 414 kts | 288° |
| 2026-04-28 19:22 | 42.08018 | 7.67167 | 23213 ft | 416 kts | 288° |
| 2026-04-28 19:22 | 42.09368 | 7.62262 | 23783 ft | 419 kts | 288° |
| 2026-04-28 19:22 | 42.10378 | 7.58577 | 23990 ft | 420 kts | 288° |
| 2026-04-28 19:23 | 42.11398 | 7.54843 | 24030 ft | 430 kts | 288° |
| 2026-04-28 19:23 | 42.12438 | 7.51041 | 24037 ft | 434 kts | 288° |
| 2026-04-28 19:23 | 42.13487 | 7.47211 | 24031 ft | 435 kts | 288° |
| 2026-04-28 19:23 | 42.14533 | 7.43381 | 24032 ft | 436 kts | 288° |
| 2026-04-28 19:24 | 42.15564 | 7.39594 | 24034 ft | 436 kts | 288° |
| 2026-04-28 19:24 | 42.16607 | 7.35754 | 24032 ft | 436 kts | 288° |
| 2026-04-28 19:24 | 42.17648 | 7.31913 | 24034 ft | 436 kts | 288° |
| 2026-04-28 19:24 | 42.18686 | 7.28079 | 24032 ft | 435 kts | 288° |
| 2026-04-28 19:25 | 42.19720 | 7.24246 | 24030 ft | 435 kts | 288° |
| 2026-04-28 19:25 | 42.20755 | 7.20412 | 24028 ft | 435 kts | 288° |
| 2026-04-28 19:25 | 42.21792 | 7.16578 | 24027 ft | 435 kts | 288° |
| 2026-04-28 19:25 | 42.22828 | 7.12744 | 24030 ft | 435 kts | 288° |
| 2026-04-28 19:26 | 42.23862 | 7.08913 | 24032 ft | 435 kts | 288° |
| 2026-04-28 19:26 | 42.24894 | 7.05073 | 24035 ft | 435 kts | 288° |
| 2026-04-28 19:26 | 42.25923 | 7.01231 | 24028 ft | 435 kts | 288° |
| 2026-04-28 19:26 | 42.26947 | 6.97391 | 24025 ft | 435 kts | 287° |
| 2026-04-28 19:27 | 42.27968 | 6.93551 | 24023 ft | 435 kts | 287° |
| 2026-04-28 19:27 | 42.28988 | 6.89714 | 24023 ft | 434 kts | 287° |
| 2026-04-28 19:27 | 42.29998 | 6.85918 | 24028 ft | 434 kts | 287° |
| 2026-04-28 19:27 | 42.31022 | 6.82072 | 24027 ft | 434 kts | 287° |
| 2026-04-28 19:28 | 42.32042 | 6.78227 | 24023 ft | 435 kts | 287° |
| 2026-04-28 19:28 | 42.33058 | 6.74383 | 24022 ft | 435 kts | 287° |
| 2026-04-28 19:28 | 42.34073 | 6.70534 | 24023 ft | 435 kts | 287° |
| 2026-04-28 19:28 | 42.35087 | 6.66685 | 24023 ft | 435 kts | 287° |
| 2026-04-28 19:29 | 42.36101 | 6.62838 | 24024 ft | 435 kts | 287° |
| 2026-04-28 19:29 | 42.36775 | 6.60290 | 24024 ft | 435 kts | 287° |
| 2026-04-28 19:29 | 42.38136 | 6.55140 | 24022 ft | 435 kts | 287° |
| 2026-04-28 19:29 | 42.39150 | 6.51290 | 24023 ft | 434 kts | 287° |
| 2026-04-28 19:30 | 42.40161 | 6.47436 | 24021 ft | 434 kts | 287° |
| 2026-04-28 19:30 | 42.41169 | 6.43581 | 24032 ft | 434 kts | 287° |
| 2026-04-28 19:30 | 42.42173 | 6.39732 | 24029 ft | 434 kts | 287° |
| 2026-04-28 19:30 | 42.43179 | 6.35860 | 24028 ft | 434 kts | 287° |
| 2026-04-28 19:31 | 42.44181 | 6.31996 | 24035 ft | 434 kts | 287° |
| 2026-04-28 19:31 | 42.45168 | 6.28193 | 24034 ft | 434 kts | 287° |
| 2026-04-28 19:31 | 42.46172 | 6.24326 | 24032 ft | 434 kts | 287° |
| 2026-04-28 19:31 | 42.47172 | 6.20466 | 24031 ft | 434 kts | 287° |
| 2026-04-28 19:32 | 42.48172 | 6.16610 | 24028 ft | 434 kts | 287° |
| 2026-04-28 19:32 | 42.49169 | 6.12751 | 24029 ft | 434 kts | 287° |
| 2026-04-28 19:32 | 42.50163 | 6.08892 | 24028 ft | 434 kts | 287° |
| 2026-04-28 19:32 | 42.51152 | 6.05057 | 24032 ft | 434 kts | 287° |
| 2026-04-28 19:33 | 42.52148 | 6.01196 | 24027 ft | 434 kts | 287° |
| 2026-04-28 19:33 | 42.53142 | 5.97334 | 24027 ft | 434 kts | 287° |
| 2026-04-28 19:33 | 42.53800 | 5.94770 | 24027 ft | 434 kts | 287° |
| 2026-04-28 19:33 | 42.54789 | 5.90903 | 24026 ft | 434 kts | 287° |
| 2026-04-28 19:34 | 42.55774 | 5.87040 | 24025 ft | 434 kts | 287° |
| 2026-04-28 19:34 | 42.57079 | 5.81915 | 24025 ft | 434 kts | 287° |
| 2026-04-28 19:34 | 42.57744 | 5.79293 | 24025 ft | 434 kts | 287° |
| 2026-04-28 19:34 | 42.58713 | 5.75471 | 24024 ft | 434 kts | 287° |
| 2026-04-28 19:35 | 42.59694 | 5.71612 | 23874 ft | 430 kts | 287° |
| 2026-04-28 19:35 | 42.60663 | 5.67798 | 23160 ft | 426 kts | 287° |
| 2026-04-28 19:35 | 42.61620 | 5.64012 | 22426 ft | 422 kts | 287° |
| 2026-04-28 19:35 | 42.62565 | 5.60267 | 21745 ft | 418 kts | 287° |
| 2026-04-28 19:36 | 42.63501 | 5.56558 | 21090 ft | 414 kts | 287° |
| 2026-04-28 19:36 | 42.64429 | 5.52872 | 20465 ft | 410 kts | 287° |
| 2026-04-28 19:36 | 42.65346 | 5.49223 | 19842 ft | 407 kts | 287° |
| 2026-04-28 19:36 | 42.66257 | 5.45601 | 19246 ft | 404 kts | 286° |
| 2026-04-28 19:37 | 42.67158 | 5.42004 | 18678 ft | 401 kts | 286° |
| 2026-04-28 19:37 | 42.67752 | 5.39629 | 18309 ft | 399 kts | 286° |
| 2026-04-28 19:37 | 42.69169 | 5.34996 | 17491 ft | 397 kts | 297° |
| 2026-04-28 19:37 | 42.70760 | 5.31925 | 16901 ft | 398 kts | 309° |
| 2026-04-28 19:38 | 42.72761 | 5.29342 | 16334 ft | 398 kts | 320° |
| 2026-04-28 19:38 | 42.75077 | 5.27295 | 15772 ft | 397 kts | 328° |
| 2026-04-28 19:38 | 42.77450 | 5.25405 | 15223 ft | 394 kts | 328° |
| 2026-04-28 19:38 | 42.79803 | 5.23526 | 14691 ft | 390 kts | 328° |
| 2026-04-28 19:39 | 42.82109 | 5.21686 | 14159 ft | 388 kts | 328° |
| 2026-04-28 19:39 | 42.84426 | 5.19834 | 13603 ft | 385 kts | 328° |
| 2026-04-28 19:39 | 42.86725 | 5.17995 | 12995 ft | 382 kts | 328° |
| 2026-04-28 19:39 | 42.89004 | 5.16168 | 12414 ft | 378 kts | 328° |
| 2026-04-28 19:40 | 42.91265 | 5.14354 | 11821 ft | 375 kts | 328° |
| 2026-04-28 19:40 | 42.93525 | 5.12599 | 11218 ft | 373 kts | 333° |
| 2026-04-28 19:40 | 42.95932 | 5.11318 | 10620 ft | 371 kts | 343° |
| 2026-04-28 19:40 | 42.98421 | 5.10454 | 10058 ft | 368 kts | 345° |
| 2026-04-28 19:41 | 43.00858 | 5.09615 | 9862 ft | 353 kts | 345° |
| 2026-04-28 19:41 | 43.03194 | 5.08807 | 9667 ft | 339 kts | 345° |
| 2026-04-28 19:41 | 43.05442 | 5.08026 | 9455 ft | 328 kts | 345° |
| 2026-04-28 19:41 | 43.07614 | 5.07269 | 9250 ft | 317 kts | 345° |
| 2026-04-28 19:42 | 43.09721 | 5.06532 | 9043 ft | 307 kts | 345° |
| 2026-04-28 19:42 | 43.11756 | 5.05819 | 8833 ft | 298 kts | 346° |
| 2026-04-28 19:42 | 43.13744 | 5.05123 | 8629 ft | 294 kts | 346° |
| 2026-04-28 19:42 | 43.15052 | 5.04664 | 8491 ft | 293 kts | 346° |
| 2026-04-28 19:43 | 43.17686 | 5.03742 | 8223 ft | 291 kts | 346° |
| 2026-04-28 19:43 | 43.19636 | 5.03057 | 8018 ft | 286 kts | 346° |
| 2026-04-28 19:43 | 43.21531 | 5.02547 | 7813 ft | 276 kts | 359° |
| 2026-04-28 19:43 | 43.23370 | 5.02961 | 7625 ft | 264 kts | 24° |
| 2026-04-28 19:44 | 43.24880 | 5.04263 | 7434 ft | 251 kts | 46° |
| 2026-04-28 19:44 | 43.25871 | 5.06127 | 7388 ft | 237 kts | 67° |
| 2026-04-28 19:44 | 43.26317 | 5.08262 | 7369 ft | 232 kts | 88° |
| 2026-04-28 19:44 | 43.26204 | 5.10449 | 7345 ft | 230 kts | 106° |
| 2026-04-28 19:45 | 43.25564 | 5.12446 | 7317 ft | 230 kts | 125° |
| 2026-04-28 19:45 | 43.24465 | 5.14032 | 7293 ft | 229 kts | 145° |
| 2026-04-28 19:45 | 43.23054 | 5.15009 | 7269 ft | 228 kts | 163° |
| 2026-04-28 19:45 | 43.21501 | 5.15468 | 7242 ft | 229 kts | 173° |
| 2026-04-28 19:46 | 43.19903 | 5.15373 | 7178 ft | 232 kts | 192° |
| 2026-04-28 19:46 | 43.18404 | 5.14550 | 7079 ft | 234 kts | 212° |
| 2026-04-28 19:46 | 43.17200 | 5.13049 | 7031 ft | 236 kts | 232° |
| 2026-04-28 19:46 | 43.16440 | 5.11048 | 7032 ft | 239 kts | 252° |
| 2026-04-28 19:47 | 43.16243 | 5.08802 | 7036 ft | 244 kts | 273° |
| 2026-04-28 19:47 | 43.16651 | 5.06545 | 7033 ft | 246 kts | 295° |
| 2026-04-28 19:47 | 43.17629 | 5.04629 | 7033 ft | 247 kts | 317° |
| 2026-04-28 19:47 | 43.19044 | 5.03321 | 7034 ft | 246 kts | 339° |
| 2026-04-28 19:48 | 43.20717 | 5.02688 | 7041 ft | 264 kts | 351° |
| 2026-04-28 19:48 | 43.22617 | 5.02358 | 7034 ft | 281 kts | 356° |
| 2026-04-28 19:48 | 43.24586 | 5.02208 | 7034 ft | 285 kts | 359° |
| 2026-04-28 19:48 | 43.26571 | 5.02122 | 7034 ft | 286 kts | 0° |
| 2026-04-28 19:49 | 43.28560 | 5.02039 | 7033 ft | 286 kts | 359° |
| 2026-04-28 19:49 | 43.30556 | 5.01940 | 7033 ft | 285 kts | 359° |
| 2026-04-28 19:49 | 43.32518 | 5.01825 | 7034 ft | 286 kts | 358° |
| 2026-04-28 19:49 | 43.34506 | 5.01831 | 7032 ft | 286 kts | 4° |
| 2026-04-28 19:50 | 43.38479 | 5.02045 | 7031 ft | 286 kts | 3° |
| 2026-04-28 19:50 | 43.40466 | 5.02138 | 7031 ft | 286 kts | 2° |
| 2026-04-28 19:50 | 43.42440 | 5.01867 | 7029 ft | 287 kts | 346° |
| 2026-04-28 19:51 | 43.44289 | 5.00853 | 6892 ft | 285 kts | 330° |
| 2026-04-28 19:51 | 43.45844 | 4.99184 | 6466 ft | 284 kts | 315° |
| 2026-04-28 19:51 | 43.47253 | 4.97276 | 6016 ft | 284 kts | 315° |
| 2026-04-28 19:51 | 43.48669 | 4.95374 | 5601 ft | 283 kts | 316° |
| 2026-04-28 19:52 | 43.50076 | 4.93491 | 5203 ft | 281 kts | 316° |
| 2026-04-28 19:52 | 43.51471 | 4.91629 | 5002 ft | 278 kts | 316° |
| 2026-04-28 19:52 | 43.52869 | 4.89763 | 5005 ft | 281 kts | 316° |
| 2026-04-28 19:52 | 43.54265 | 4.87897 | 5003 ft | 274 kts | 316° |
| 2026-04-28 19:53 | 43.55622 | 4.86187 | 5001 ft | 255 kts | 326° |
| 2026-04-28 19:53 | 43.57199 | 4.85366 | 5007 ft | 235 kts | 357° |
| 2026-04-28 19:53 | 43.58716 | 4.85647 | 5005 ft | 215 kts | 26° |
| 2026-04-28 19:53 | 43.59882 | 4.86727 | 5058 ft | 191 kts | 50° |
| 2026-04-28 19:54 | 43.60593 | 4.88162 | 4972 ft | 176 kts | 63° |
| 2026-04-28 19:54 | 43.61191 | 4.89581 | 4837 ft | 166 kts | 63° |
| 2026-04-28 19:54 | 43.61759 | 4.90924 | 4703 ft | 157 kts | 64° |
| 2026-04-28 19:54 | 43.62257 | 4.92219 | 4528 ft | 149 kts | 76° |
| 2026-04-28 19:55 | 43.62399 | 4.93644 | 4109 ft | 156 kts | 100° |
| 2026-04-28 19:55 | 43.62055 | 4.95064 | 4068 ft | 169 kts | 122° |
| 2026-04-28 19:55 | 43.61265 | 4.96336 | 4043 ft | 178 kts | 134° |
| 2026-04-28 19:55 | 43.60397 | 4.97576 | 4032 ft | 180 kts | 134° |
| 2026-04-28 19:56 | 43.59526 | 4.98823 | 4029 ft | 181 kts | 134° |
| 2026-04-28 19:56 | 43.58653 | 5.00077 | 3871 ft | 181 kts | 133° |
| 2026-04-28 19:56 | 43.57789 | 5.01324 | 3695 ft | 179 kts | 134° |
| 2026-04-28 19:56 | 43.56925 | 5.02563 | 3528 ft | 180 kts | 134° |
| 2026-04-28 19:57 | 43.56043 | 5.03823 | 3227 ft | 186 kts | 134° |
| 2026-04-28 19:57 | 43.55142 | 5.05111 | 2955 ft | 187 kts | 134° |
| 2026-04-28 19:57 | 43.54262 | 5.06371 | 2723 ft | 182 kts | 134° |
| 2026-04-28 19:57 | 43.53397 | 5.07609 | 2477 ft | 177 kts | 134° |
| 2026-04-28 19:58 | 43.52545 | 5.08828 | 2230 ft | 175 kts | 134° |
| 2026-04-28 19:58 | 43.51701 | 5.10036 | 2005 ft | 175 kts | 134° |
| 2026-04-28 19:58 | 43.50882 | 5.11208 | 1772 ft | 162 kts | 134° |
| 2026-04-28 19:58 | 43.50139 | 5.12269 | 1581 ft | 145 kts | 134° |
| 2026-04-28 19:59 | 43.49459 | 5.13240 | 1368 ft | 137 kts | 134° |
| 2026-04-28 19:59 | 43.48811 | 5.14174 | 1140 ft | 133 kts | 133° |
| 2026-04-28 19:59 | 43.48181 | 5.15111 | 966 ft | 134 kts | 134° |
| 2026-04-28 19:59 | 43.47530 | 5.16029 | 789 ft | 133 kts | 135° |
| 2026-04-28 20:00 | 43.46882 | 5.16958 | 556 ft | 135 kts | 136° |
| 2026-04-28 20:00 | 43.46228 | 5.17886 | 436 ft | 136 kts | 136° |
| 2026-04-28 20:00 | 43.45568 | 5.18813 | 272 ft | 137 kts | 135° |
| 2026-04-28 20:00 | 43.44905 | 5.19759 | 126 ft | 137 kts | 138° |
| 2026-04-28 20:01 | 43.44247 | 5.20680 | 19 ft | 120 kts | 134° |
| 2026-04-28 20:01 | 43.43873 | 5.21212 | 30 ft | 48 kts | 134° |
| 2026-04-28 20:01 | 43.43674 | 5.21523 | 40 ft | 35 kts | 119° |
| 2026-04-28 20:01 | 43.43512 | 5.21746 | 44 ft | 32 kts | 137° |
| 2026-04-28 20:02 | 43.43372 | 5.21936 | 49 ft | 20 kts | 128° |
| 2026-04-28 20:02 | 43.43334 | 5.22113 | 52 ft | 20 kts | 87° |
| 2026-04-28 20:02 | 43.43375 | 5.22270 | 54 ft | 17 kts | 30° |
| 2026-04-28 20:02 | 43.43485 | 5.22230 | 51 ft | 17 kts | 333° |
| 2026-04-28 20:03 | 43.43595 | 5.22145 | 48 ft | 20 kts | 328° |
| 2026-04-28 20:03 | 43.43701 | 5.22154 | 46 ft | 13 kts | 51° |
| 2026-04-28 20:03 | 43.43768 | 5.22227 | 46 ft | 12 kts | 14° |
| 2026-04-28 20:03 | 43.43855 | 5.22199 | 44 ft | 17 kts | 338° |
| 2026-04-28 20:04 | 43.43941 | 5.22105 | 41 ft | 6 kts | 317° |
| 2026-04-28 20:04 | 43.43968 | 5.22109 | 40 ft | 3 kts | 41° |
| 2026-04-28 20:04 | 43.43994 | 5.22138 | 40 ft | 6 kts | 34° |
| 2026-04-28 20:04 | 43.44014 | 5.22157 | 40 ft | 0 kts | 34° |
| 2026-04-28 20:21 | 43.43995 | 5.22139 | 37 ft | 4 kts | 34° |
| 2026-04-28 20:22 | 43.43984 | 5.22129 | 35 ft | 4 kts | 32° |
| 2026-04-28 20:22 | 43.43960 | 5.22113 | 40 ft | 4 kts | 10° |
| 2026-04-28 20:22 | 43.43935 | 5.22114 | 41 ft | 4 kts | 326° |
| 2026-04-28 20:22 | 43.43926 | 5.22125 | 39 ft | 1 kts | 314° |
| 2026-04-28 20:23 | 43.43925 | 5.22126 | 39 ft | 1 kts | 314° |
| 2026-04-28 20:25 | 43.43927 | 5.22123 | 41 ft | 1 kts | 314° |
| 2026-04-28 20:25 | 43.43939 | 5.22107 | 40 ft | 3 kts | 314° |
| 2026-04-28 20:25 | 43.43960 | 5.22077 | 40 ft | 5 kts | 316° |
| 2026-04-28 20:25 | 43.43992 | 5.22033 | 39 ft | 8 kts | 311° |
| 2026-04-28 20:26 | 43.43963 | 5.21944 | 38 ft | 17 kts | 227° |
| 2026-04-28 20:26 | 43.43913 | 5.21812 | 37 ft | 16 kts | 303° |
| 2026-04-28 20:26 | 43.43975 | 5.21678 | 34 ft | 17 kts | 274° |
| 2026-04-28 20:26 | 43.43922 | 5.21531 | 32 ft | 18 kts | 257° |
| 2026-04-28 20:27 | 43.43982 | 5.21398 | 30 ft | 16 kts | 314° |
| 2026-04-28 20:27 | 43.44111 | 5.21215 | 29 ft | 36 kts | 314° |
| 2026-04-28 20:27 | 43.44284 | 5.20953 | 19 ft | 36 kts | 304° |
| 2026-04-28 20:27 | 43.44295 | 5.20807 | 19 ft | 0 kts | 237° |
| 2026-04-28 20:28 | 43.44291 | 5.20798 | 18 ft | 7 kts | 235° |
| 2026-04-28 20:28 | 43.44174 | 5.20571 | 18 ft | 38 kts | 244° |
| 2026-04-28 20:29 | 43.44036 | 5.20425 | 15 ft | 19 kts | 135° |
| 2026-04-28 20:29 | 43.43969 | 5.20525 | 16 ft | 14 kts | 135° |
| 2026-04-28 20:29 | 43.43963 | 5.20534 | 16 ft | 0 kts | 135° |
| 2026-04-28 20:30 | 43.43875 | 5.20654 | 17 ft | 53 kts | 135° |
| 2026-04-28 20:30 | 43.43449 | 5.21247 | 36 ft | 118 kts | 134° |
| 2026-04-28 20:30 | 43.42784 | 5.22205 | 235 ft | 148 kts | 133° |
| 2026-04-28 20:31 | 43.42066 | 5.23206 | 806 ft | 147 kts | 139° |
| 2026-04-28 20:31 | 43.41289 | 5.24129 | 1405 ft | 148 kts | 145° |
| 2026-04-28 20:31 | 43.40408 | 5.24874 | 1951 ft | 154 kts | 151° |
| 2026-04-28 20:31 | 43.39429 | 5.25644 | 2306 ft | 172 kts | 150° |
| 2026-04-28 20:32 | 43.38353 | 5.26537 | 2674 ft | 189 kts | 147° |
| 2026-04-28 20:32 | 43.37190 | 5.27563 | 2995 ft | 209 kts | 147° |
| 2026-04-28 20:32 | 43.35887 | 5.28710 | 3295 ft | 236 kts | 146° |
| 2026-04-28 20:32 | 43.34456 | 5.29963 | 3885 ft | 251 kts | 146° |
| 2026-04-28 20:33 | 43.32926 | 5.31307 | 4485 ft | 269 kts | 146° |
| 2026-04-28 20:33 | 43.31248 | 5.32523 | 5218 ft | 276 kts | 163° |
| 2026-04-28 20:33 | 43.29328 | 5.32863 | 6126 ft | 281 kts | 179° |
| 2026-04-28 20:33 | 43.27364 | 5.32911 | 7058 ft | 283 kts | 179° |
| 2026-04-28 20:34 | 43.25384 | 5.32950 | 7971 ft | 286 kts | 179° |
| 2026-04-28 20:34 | 43.23385 | 5.32990 | 8894 ft | 288 kts | 179° |
| 2026-04-28 20:34 | 43.21378 | 5.33035 | 9875 ft | 289 kts | 179° |
| 2026-04-28 20:34 | 43.19302 | 5.33083 | 10479 ft | 304 kts | 179° |